sensor_id;sensor_type;location;lat;lon;timestamp;pressure;altitude;pressure_sealevel;temperature;humidity
57644;BME280;43474;46.510;6.686;2022-09-17T00:00:20;96233.06;;;11.05;100.00
57644;BME280;43474;46.510;6.686;2022-09-17T00:03:07;96243.88;;;11.20;100.00
57644;BME280;43474;46.510;6.686;2022-09-17T00:05:35;96223.84;;;10.91;100.00
57644;BME280;43474;46.510;6.686;2022-09-17T00:08:04;96241.41;;;10.97;100.00
57644;BME280;43474;46.510;6.686;2022-09-17T00:10:30;96253.69;;;11.03;100.00
57644;BME280;43474;46.510;6.686;2022-09-17T00:12:56;96259.06;;;11.08;100.00
57644;BME280;43474;46.510;6.686;2022-09-17T00:15:22;96239.41;;;10.87;100.00
57644;BME280;43474;46.510;6.686;2022-09-17T00:17:53;96248.75;;;10.90;100.00
57644;BME280;43474;46.510;6.686;2022-09-17T00:20:18;96226.56;;;10.79;100.00
57644;BME280;43474;46.510;6.686;2022-09-17T00:22:44;96251.31;;;10.84;100.00
57644;BME280;43474;46.510;6.686;2022-09-17T00:25:09;96251.00;;;10.81;100.00
57644;BME280;43474;46.510;6.686;2022-09-17T00:27:35;96272.53;;;10.84;100.00
57644;BME280;43474;46.510;6.686;2022-09-17T00:30:00;96270.81;;;10.78;100.00
57644;BME280;43474;46.510;6.686;2022-09-17T00:32:26;96283.03;;;10.63;100.00
57644;BME280;43474;46.510;6.686;2022-09-17T00:34:52;96275.88;;;10.63;100.00
57644;BME280;43474;46.510;6.686;2022-09-17T00:37:19;96286.72;;;10.61;100.00
57644;BME280;43474;46.510;6.686;2022-09-17T00:39:45;96287.34;;;10.69;100.00
57644;BME280;43474;46.510;6.686;2022-09-17T00:42:12;96289.38;;;10.78;100.00
57644;BME280;43474;46.510;6.686;2022-09-17T00:47:40;96299.34;;;10.88;100.00
57644;BME280;43474;46.510;6.686;2022-09-17T00:50:13;96295.41;;;10.91;100.00
57644;BME280;43474;46.510;6.686;2022-09-17T00:52:52;96299.13;;;10.90;100.00
57644;BME280;43474;46.510;6.686;2022-09-17T00:57:51;96306.75;;;10.86;100.00
57644;BME280;43474;46.510;6.686;2022-09-17T01:00:18;96280.94;;;10.81;100.00
57644;BME280;43474;46.510;6.686;2022-09-17T01:02:44;96279.66;;;10.84;100.00
57644;BME280;43474;46.510;6.686;2022-09-17T01:05:10;96296.53;;;10.95;100.00
57644;BME280;43474;46.510;6.686;2022-09-17T01:10:52;96287.47;;;10.91;100.00
57644;BME280;43474;46.510;6.686;2022-09-17T01:13:33;96306.34;;;10.94;100.00
57644;BME280;43474;46.510;6.686;2022-09-17T01:17:04;96308.25;;;10.99;100.00
57644;BME280;43474;46.510;6.686;2022-09-17T01:22:25;96302.31;;;10.75;100.00
57644;BME280;43474;46.510;6.686;2022-09-17T01:25:21;96293.06;;;10.77;100.00
57644;BME280;43474;46.510;6.686;2022-09-17T01:28:18;96295.09;;;10.70;100.00
57644;BME280;43474;46.510;6.686;2022-09-17T01:31:03;96293.72;;;10.68;100.00
57644;BME280;43474;46.510;6.686;2022-09-17T01:36:48;96298.47;;;10.66;100.00
57644;BME280;43474;46.510;6.686;2022-09-17T01:39:56;96304.09;;;10.69;100.00
57644;BME280;43474;46.510;6.686;2022-09-17T01:42:35;96303.19;;;10.64;100.00
57644;BME280;43474;46.510;6.686;2022-09-17T01:45:14;96321.72;;;10.64;100.00
57644;BME280;43474;46.510;6.686;2022-09-17T01:47:46;96310.94;;;10.53;100.00
57644;BME280;43474;46.510;6.686;2022-09-17T01:50:19;96290.53;;;10.37;100.00
57644;BME280;43474;46.510;6.686;2022-09-17T01:52:49;96315.34;;;10.48;100.00
57644;BME280;43474;46.510;6.686;2022-09-17T01:55:17;96315.97;;;10.38;100.00
57644;BME280;43474;46.510;6.686;2022-09-17T01:58:03;96313.13;;;10.40;100.00
57644;BME280;43474;46.510;6.686;2022-09-17T02:00:31;96285.53;;;10.24;100.00
57644;BME280;43474;46.510;6.686;2022-09-17T02:03:01;96312.94;;;10.29;100.00
57644;BME280;43474;46.510;6.686;2022-09-17T02:05:42;96308.53;;;10.35;100.00
57644;BME280;43474;46.510;6.686;2022-09-17T02:10:48;96310.50;;;10.28;100.00
57644;BME280;43474;46.510;6.686;2022-09-17T02:13:56;96316.84;;;10.27;100.00
57644;BME280;43474;46.510;6.686;2022-09-17T02:16:26;96320.97;;;10.23;100.00
57644;BME280;43474;46.510;6.686;2022-09-17T02:22:01;96318.94;;;10.25;100.00
57644;BME280;43474;46.510;6.686;2022-09-17T02:24:32;96324.63;;;10.33;100.00
57644;BME280;43474;46.510;6.686;2022-09-17T02:29:41;96310.28;;;10.18;100.00
57644;BME280;43474;46.510;6.686;2022-09-17T02:32:08;96320.63;;;10.31;100.00
57644;BME280;43474;46.510;6.686;2022-09-17T02:34:34;96319.84;;;10.30;100.00
57644;BME280;43474;46.510;6.686;2022-09-17T02:37:00;96307.97;;;10.21;100.00
57644;BME280;43474;46.510;6.686;2022-09-17T02:39:27;96334.44;;;10.33;100.00
57644;BME280;43474;46.510;6.686;2022-09-17T02:50:08;96344.72;;;10.29;100.00
57644;BME280;43474;46.510;6.686;2022-09-17T02:52:54;96342.06;;;10.29;100.00
57644;BME280;43474;46.510;6.686;2022-09-17T02:55:30;96329.53;;;10.25;100.00
57644;BME280;43474;46.510;6.686;2022-09-17T03:00:34;96345.06;;;10.21;100.00
57644;BME280;43474;46.510;6.686;2022-09-17T03:03:08;96335.16;;;10.17;100.00
57644;BME280;43474;46.510;6.686;2022-09-17T03:05:36;96333.13;;;10.07;100.00
57644;BME280;43474;46.510;6.686;2022-09-17T03:08:07;96345.66;;;10.12;100.00
57644;BME280;43474;46.510;6.686;2022-09-17T03:10:33;96331.41;;;10.01;100.00
57644;BME280;43474;46.510;6.686;2022-09-17T03:12:59;96345.91;;;10.10;100.00
57644;BME280;43474;46.510;6.686;2022-09-17T03:15:25;96345.66;;;10.12;100.00
57644;BME280;43474;46.510;6.686;2022-09-17T03:17:51;96330.94;;;10.04;100.00
57644;BME280;43474;46.510;6.686;2022-09-17T03:20:16;96339.47;;;10.06;100.00
57644;BME280;43474;46.510;6.686;2022-09-17T03:22:42;96335.91;;;10.00;100.00
57644;BME280;43474;46.510;6.686;2022-09-17T03:25:08;96328.47;;;9.86;100.00
57644;BME280;43474;46.510;6.686;2022-09-17T03:27:34;96331.44;;;9.89;100.00
57644;BME280;43474;46.510;6.686;2022-09-17T03:29:59;96330.63;;;9.89;100.00
57644;BME280;43474;46.510;6.686;2022-09-17T03:32:25;96313.75;;;9.78;100.00
57644;BME280;43474;46.510;6.686;2022-09-17T03:34:51;96327.31;;;9.81;100.00
57644;BME280;43474;46.510;6.686;2022-09-17T03:37:18;96344.81;;;9.82;100.00
57644;BME280;43474;46.510;6.686;2022-09-17T03:39:43;96342.59;;;9.79;100.00
57644;BME280;43474;46.510;6.686;2022-09-17T03:42:09;96342.84;;;9.78;100.00
57644;BME280;43474;46.510;6.686;2022-09-17T03:44:34;96360.22;;;9.74;100.00
57644;BME280;43474;46.510;6.686;2022-09-17T03:46:59;96348.97;;;9.67;100.00
57644;BME280;43474;46.510;6.686;2022-09-17T03:49:25;96370.50;;;9.70;100.00
57644;BME280;43474;46.510;6.686;2022-09-17T03:51:51;96362.75;;;9.69;100.00
57644;BME280;43474;46.510;6.686;2022-09-17T03:54:16;96364.50;;;9.75;100.00
57644;BME280;43474;46.510;6.686;2022-09-17T03:56:42;96357.94;;;9.66;100.00
57644;BME280;43474;46.510;6.686;2022-09-17T03:59:07;96367.84;;;9.70;100.00
57644;BME280;43474;46.510;6.686;2022-09-17T04:01:33;96362.75;;;9.69;100.00
57644;BME280;43474;46.510;6.686;2022-09-17T04:03:59;96364.72;;;9.62;100.00
57644;BME280;43474;46.510;6.686;2022-09-17T04:06:25;96381.06;;;9.70;100.00
57644;BME280;43474;46.510;6.686;2022-09-17T04:08:50;96381.06;;;9.70;100.00
57644;BME280;43474;46.510;6.686;2022-09-17T04:11:16;96372.56;;;9.56;100.00
57644;BME280;43474;46.510;6.686;2022-09-17T04:13:41;96360.72;;;9.36;100.00
57644;BME280;43474;46.510;6.686;2022-09-17T04:16:07;96393.50;;;9.46;100.00
57644;BME280;43474;46.510;6.686;2022-09-17T04:18:33;96385.53;;;9.35;100.00
57644;BME280;43474;46.510;6.686;2022-09-17T04:20:58;96392.78;;;9.27;100.00
57644;BME280;43474;46.510;6.686;2022-09-17T04:23:24;96402.09;;;9.18;100.00
57644;BME280;43474;46.510;6.686;2022-09-17T04:25:50;96414.81;;;9.10;100.00
57644;BME280;43474;46.510;6.686;2022-09-17T04:28:15;96392.72;;;8.80;100.00
57644;BME280;43474;46.510;6.686;2022-09-17T04:30:41;96420.88;;;8.87;100.00
57644;BME280;43474;46.510;6.686;2022-09-17T04:33:10;96408.69;;;8.86;100.00
57644;BME280;43474;46.510;6.686;2022-09-17T04:35:36;96423.16;;;8.83;100.00
57644;BME280;43474;46.510;6.686;2022-09-17T04:38:02;96427.94;;;8.74;100.00
57644;BME280;43474;46.510;6.686;2022-09-17T04:40:27;96430.31;;;8.64;100.00
57644;BME280;43474;46.510;6.686;2022-09-17T04:42:55;96428.66;;;8.51;100.00
57644;BME280;43474;46.510;6.686;2022-09-17T04:45:21;96419.34;;;8.49;100.00
57644;BME280;43474;46.510;6.686;2022-09-17T04:47:47;96423.16;;;8.53;100.00
57644;BME280;43474;46.510;6.686;2022-09-17T04:50:17;96429.75;;;8.62;100.00
57644;BME280;43474;46.510;6.686;2022-09-17T04:52:43;96446.22;;;8.76;100.00
57644;BME280;43474;46.510;6.686;2022-09-17T04:55:09;96428.13;;;8.61;100.00
57644;BME280;43474;46.510;6.686;2022-09-17T04:57:35;96419.41;;;8.61;100.00
57644;BME280;43474;46.510;6.686;2022-09-17T05:00:00;96422.75;;;8.68;100.00
57644;BME280;43474;46.510;6.686;2022-09-17T05:02:26;96436.78;;;8.80;100.00
57644;BME280;43474;46.510;6.686;2022-09-17T05:04:51;96435.88;;;8.74;100.00
57644;BME280;43474;46.510;6.686;2022-09-17T05:07:17;96444.19;;;8.90;100.00
57644;BME280;43474;46.510;6.686;2022-09-17T05:09:43;96428.81;;;8.87;100.00
57644;BME280;43474;46.510;6.686;2022-09-17T05:12:08;96425.44;;;8.79;100.00
57644;BME280;43474;46.510;6.686;2022-09-17T05:14:33;96435.31;;;8.84;100.00
57644;BME280;43474;46.510;6.686;2022-09-17T05:16:59;96449.47;;;8.90;100.00
57644;BME280;43474;46.510;6.686;2022-09-17T05:19:25;96435.28;;;8.72;100.00
57644;BME280;43474;46.510;6.686;2022-09-17T05:21:50;96450.47;;;8.77;100.00
57644;BME280;43474;46.510;6.686;2022-09-17T05:24:16;96432.38;;;8.62;100.00
57644;BME280;43474;46.510;6.686;2022-09-17T05:26:41;96440.44;;;8.67;100.00
57644;BME280;43474;46.510;6.686;2022-09-17T05:29:07;96457.22;;;8.73;100.00
57644;BME280;43474;46.510;6.686;2022-09-17T05:31:32;96446.91;;;8.71;100.00
57644;BME280;43474;46.510;6.686;2022-09-17T05:33:58;96451.44;;;8.64;100.00
57644;BME280;43474;46.510;6.686;2022-09-17T05:36:23;96440.97;;;8.58;100.00
57644;BME280;43474;46.510;6.686;2022-09-17T05:38:49;96447.97;;;8.52;100.00
57644;BME280;43474;46.510;6.686;2022-09-17T05:41:15;96460.25;;;8.58;100.00
57644;BME280;43474;46.510;6.686;2022-09-17T05:43:42;96456.91;;;8.51;100.00
57644;BME280;43474;46.510;6.686;2022-09-17T05:46:07;96442.59;;;8.40;100.00
57644;BME280;43474;46.510;6.686;2022-09-17T05:48:33;96438.81;;;8.36;100.00
57644;BME280;43474;46.510;6.686;2022-09-17T05:50:58;96436.31;;;8.41;100.00
57644;BME280;43474;46.510;6.686;2022-09-17T05:53:24;96433.69;;;8.35;100.00
57644;BME280;43474;46.510;6.686;2022-09-17T05:55:49;96440.78;;;8.41;100.00
57644;BME280;43474;46.510;6.686;2022-09-17T05:58:17;96446.69;;;8.54;100.00
57644;BME280;43474;46.510;6.686;2022-09-17T06:00:44;96450.28;;;8.60;100.00
57644;BME280;43474;46.510;6.686;2022-09-17T06:03:11;96443.31;;;8.66;100.00
57644;BME280;43474;46.510;6.686;2022-09-17T06:05:37;96435.81;;;8.63;100.00
57644;BME280;43474;46.510;6.686;2022-09-17T06:08:03;96448.13;;;8.69;100.00
57644;BME280;43474;46.510;6.686;2022-09-17T06:10:30;96458.63;;;8.75;100.00
57644;BME280;43474;46.510;6.686;2022-09-17T06:12:56;96444.97;;;8.78;100.00
57644;BME280;43474;46.510;6.686;2022-09-17T06:15:22;96443.97;;;8.91;100.00
57644;BME280;43474;46.510;6.686;2022-09-17T06:17:47;96459.50;;;8.99;100.00
57644;BME280;43474;46.510;6.686;2022-09-17T06:20:13;96449.41;;;8.96;100.00
57644;BME280;43474;46.510;6.686;2022-09-17T06:22:41;96461.72;;;9.02;100.00
57644;BME280;43474;46.510;6.686;2022-09-17T06:25:07;96443.06;;;8.97;100.00
57644;BME280;43474;46.510;6.686;2022-09-17T06:27:33;96467.63;;;9.16;100.00
57644;BME280;43474;46.510;6.686;2022-09-17T06:29:59;96446.09;;;9.13;100.00
57644;BME280;43474;46.510;6.686;2022-09-17T06:32:25;96455.75;;;9.19;100.00
57644;BME280;43474;46.510;6.686;2022-09-17T06:34:51;96453.03;;;9.25;100.00
57644;BME280;43474;46.510;6.686;2022-09-17T06:37:17;96460.19;;;9.37;100.00
57644;BME280;43474;46.510;6.686;2022-09-17T06:39:42;96452.00;;;9.38;100.00
57644;BME280;43474;46.510;6.686;2022-09-17T06:42:09;96471.69;;;9.54;100.00
57644;BME280;43474;46.510;6.686;2022-09-17T06:44:34;96473.66;;;9.58;100.00
57644;BME280;43474;46.510;6.686;2022-09-17T06:47:00;96471.69;;;9.54;100.00
57644;BME280;43474;46.510;6.686;2022-09-17T06:49:25;96488.66;;;9.76;100.00
57644;BME280;43474;46.510;6.686;2022-09-17T06:51:51;96484.50;;;9.80;100.00
57644;BME280;43474;46.510;6.686;2022-09-17T06:54:17;96475.53;;;9.93;100.00
57644;BME280;43474;46.510;6.686;2022-09-17T06:56:45;96471.13;;;9.99;100.00
57644;BME280;43474;46.510;6.686;2022-09-17T06:59:11;96481.50;;;10.24;100.00
57644;BME280;43474;46.510;6.686;2022-09-17T07:01:36;96484.47;;;10.51;100.00
57644;BME280;43474;46.510;6.686;2022-09-17T07:04:02;96461.91;;;10.77;100.00
57644;BME280;43474;46.510;6.686;2022-09-17T07:06:27;96473.13;;;11.24;100.00
57644;BME280;43474;46.510;6.686;2022-09-17T07:08:53;96470.78;;;11.78;99.65
57644;BME280;43474;46.510;6.686;2022-09-17T07:11:18;96468.03;;;12.24;100.00
57644;BME280;43474;46.510;6.686;2022-09-17T07:13:44;96480.75;;;12.87;93.37
57644;BME280;43474;46.510;6.686;2022-09-17T07:16:10;96469.00;;;13.32;92.07
57644;BME280;43474;46.510;6.686;2022-09-17T07:18:35;96487.59;;;13.91;86.68
57644;BME280;43474;46.510;6.686;2022-09-17T07:21:03;96491.72;;;14.09;79.01
57644;BME280;43474;46.510;6.686;2022-09-17T07:23:31;96497.34;;;14.55;80.20
57644;BME280;43474;46.510;6.686;2022-09-17T07:26:00;96500.47;;;15.05;80.69
57644;BME280;43474;46.510;6.686;2022-09-17T07:28:26;96499.19;;;15.17;74.90
57644;BME280;43474;46.510;6.686;2022-09-17T07:30:53;96519.50;;;15.29;80.06
57644;BME280;43474;46.510;6.686;2022-09-17T07:33:22;96492.53;;;15.45;69.67
57644;BME280;43474;46.510;6.686;2022-09-17T07:35:57;96515.59;;;15.97;69.42
57644;BME280;43474;46.510;6.686;2022-09-17T07:38:23;96510.50;;;16.16;70.27
57644;BME280;43474;46.510;6.686;2022-09-17T07:41:13;96520.84;;;16.53;64.28
57644;BME280;43474;46.510;6.686;2022-09-17T07:43:39;96518.13;;;16.64;62.78
57644;BME280;43474;46.510;6.686;2022-09-17T07:46:07;96519.50;;;16.71;59.50
57644;BME280;43474;46.510;6.686;2022-09-17T07:48:34;96524.44;;;16.98;63.30
57644;BME280;43474;46.510;6.686;2022-09-17T07:51:00;96525.13;;;17.24;55.92
57644;BME280;43474;46.510;6.686;2022-09-17T07:53:26;96506.22;;;17.00;56.79
57644;BME280;43474;46.510;6.686;2022-09-17T07:55:53;96530.53;;;17.14;54.39
57644;BME280;43474;46.510;6.686;2022-09-17T07:58:27;96533.34;;;17.38;54.48
57644;BME280;43474;46.510;6.686;2022-09-17T08:00:53;96532.88;;;16.61;58.90
57644;BME280;43474;46.510;6.686;2022-09-17T08:03:24;96530.50;;;15.52;61.25
57644;BME280;43474;46.510;6.686;2022-09-17T08:05:49;96545.44;;;15.54;63.20
57644;BME280;43474;46.510;6.686;2022-09-17T08:08:14;96530.22;;;16.36;59.71
57644;BME280;43474;46.510;6.686;2022-09-17T08:10:40;96540.72;;;15.91;62.98
57644;BME280;43474;46.510;6.686;2022-09-17T08:13:05;96550.56;;;15.65;62.28
57644;BME280;43474;46.510;6.686;2022-09-17T08:15:31;96549.69;;;14.71;67.15
57644;BME280;43474;46.510;6.686;2022-09-17T08:17:56;96554.63;;;14.10;65.96
57644;BME280;43474;46.510;6.686;2022-09-17T08:20:22;96556.06;;;13.59;67.81
57644;BME280;43474;46.510;6.686;2022-09-17T08:22:57;96574.38;;;13.28;72.27
57644;BME280;43474;46.510;6.686;2022-09-17T08:25:22;96563.09;;;12.99;73.83
57644;BME280;43474;46.510;6.686;2022-09-17T08:27:52;96569.59;;;13.08;73.83
57644;BME280;43474;46.510;6.686;2022-09-17T08:30:18;96572.50;;;14.47;66.86
57644;BME280;43474;46.510;6.686;2022-09-17T08:32:44;96578.34;;;15.64;62.71
57644;BME280;43474;46.510;6.686;2022-09-17T08:35:09;96519.53;;;16.31;59.03
57644;BME280;43474;46.510;6.686;2022-09-17T08:37:36;96575.19;;;16.28;63.78
57644;BME280;43474;46.510;6.686;2022-09-17T08:40:01;96567.16;;;15.88;62.21
57644;BME280;43474;46.510;6.686;2022-09-17T08:42:40;96578.00;;;15.40;68.33
57644;BME280;43474;46.510;6.686;2022-09-17T08:45:12;96582.16;;;17.25;62.37
57644;BME280;43474;46.510;6.686;2022-09-17T08:47:41;96574.00;;;17.55;57.74
57644;BME280;43474;46.510;6.686;2022-09-17T09:03:36;96591.97;;;14.47;70.31
57644;BME280;43474;46.510;6.686;2022-09-17T09:06:05;96595.91;;;14.45;78.31
57644;BME280;43474;46.510;6.686;2022-09-17T09:08:38;96597.94;;;14.28;72.35
57644;BME280;43474;46.510;6.686;2022-09-17T09:11:12;96593.59;;;14.21;69.22
57644;BME280;43474;46.510;6.686;2022-09-17T09:13:52;96604.13;;;14.33;74.19
57644;BME280;43474;46.510;6.686;2022-09-17T09:16:23;96588.25;;;14.16;67.50
57644;BME280;43474;46.510;6.686;2022-09-17T09:18:53;96606.91;;;14.16;70.85
57644;BME280;43474;46.510;6.686;2022-09-17T09:21:25;96607.91;;;14.10;75.78
57644;BME280;43474;46.510;6.686;2022-09-17T09:23:59;96609.56;;;14.16;72.85
57644;BME280;43474;46.510;6.686;2022-09-17T09:31:43;96606.66;;;14.18;72.28
57644;BME280;43474;46.510;6.686;2022-09-17T09:34:12;96603.25;;;14.22;71.08
57644;BME280;43474;46.510;6.686;2022-09-17T09:36:38;96604.06;;;13.96;72.57
57644;BME280;43474;46.510;6.686;2022-09-17T09:39:20;96607.88;;;14.37;85.29
57644;BME280;43474;46.510;6.686;2022-09-17T09:41:52;96602.41;;;14.54;75.99
57644;BME280;43474;46.510;6.686;2022-09-17T09:44:18;96589.41;;;14.63;71.78
57644;BME280;43474;46.510;6.686;2022-09-17T09:57:54;96605.13;;;17.96;60.38
57644;BME280;43474;46.510;6.686;2022-09-17T10:00:41;96613.69;;;16.38;61.33
57644;BME280;43474;46.510;6.686;2022-09-17T10:03:27;96612.06;;;16.06;68.43
57644;BME280;43474;46.510;6.686;2022-09-17T10:06:09;96616.03;;;15.68;66.81
57644;BME280;43474;46.510;6.686;2022-09-17T10:09:23;96612.81;;;15.76;67.48
57644;BME280;43474;46.510;6.686;2022-09-17T10:11:26;96603.91;;;15.40;65.73
57644;BME280;43474;46.510;6.686;2022-09-17T10:13:52;96609.25;;;15.50;65.34
57644;BME280;43474;46.510;6.686;2022-09-17T10:16:25;96614.88;;;15.43;64.82
57644;BME280;43474;46.510;6.686;2022-09-17T10:19:20;96619.38;;;15.38;69.52
57644;BME280;43474;46.510;6.686;2022-09-17T10:21:50;96598.00;;;15.28;64.56
57644;BME280;43474;46.510;6.686;2022-09-17T10:24:23;96611.63;;;15.41;75.24
57644;BME280;43474;46.510;6.686;2022-09-17T10:26:50;96608.34;;;15.14;67.33
57644;BME280;43474;46.510;6.686;2022-09-17T10:29:18;96605.97;;;15.17;66.13
57644;BME280;43474;46.510;6.686;2022-09-17T10:31:50;96595.31;;;15.28;67.79
57644;BME280;43474;46.510;6.686;2022-09-17T10:34:27;96601.22;;;15.40;67.24
57644;BME280;43474;46.510;6.686;2022-09-17T10:36:54;96604.91;;;15.18;65.29
57644;BME280;43474;46.510;6.686;2022-09-17T10:39:32;96600.34;;;15.19;65.83
57644;BME280;43474;46.510;6.686;2022-09-17T10:42:01;96615.00;;;15.16;63.00
57644;BME280;43474;46.510;6.686;2022-09-17T10:44:33;96615.28;;;15.15;66.03
57644;BME280;43474;46.510;6.686;2022-09-17T10:47:10;96603.81;;;15.14;65.18
57644;BME280;43474;46.510;6.686;2022-09-17T10:49:43;96616.72;;;15.43;59.10
57644;BME280;43474;46.510;6.686;2022-09-17T10:52:19;96614.34;;;15.46;61.87
57644;BME280;43474;46.510;6.686;2022-09-17T11:00:21;96619.53;;;15.89;65.61
57644;BME280;43474;46.510;6.686;2022-09-17T11:08:38;96610.44;;;16.92;59.48
57644;BME280;43474;46.510;6.686;2022-09-17T11:11:10;96602.50;;;17.36;56.80
57644;BME280;43474;46.510;6.686;2022-09-17T11:27:53;96609.41;;;16.72;62.60
57644;BME280;43474;46.510;6.686;2022-09-17T11:30:23;96602.72;;;16.34;57.35
57644;BME280;43474;46.510;6.686;2022-09-17T11:36:09;96614.50;;;16.33;63.40
57644;BME280;43474;46.510;6.686;2022-09-17T11:38:41;96606.13;;;16.70;62.73
57644;BME280;43474;46.510;6.686;2022-09-17T11:43:48;96613.34;;;17.60;63.33
57644;BME280;43474;46.510;6.686;2022-09-17T11:46:20;96602.38;;;17.02;54.37
57644;BME280;43474;46.510;6.686;2022-09-17T11:48:52;96621.38;;;16.90;58.93
57644;BME280;43474;46.510;6.686;2022-09-17T11:51:22;96622.19;;;16.86;61.88
57644;BME280;43474;46.510;6.686;2022-09-17T11:56:35;96615.81;;;16.20;59.04
57644;BME280;43474;46.510;6.686;2022-09-17T12:07:12;96621.38;;;16.90;60.48
57644;BME280;43474;46.510;6.686;2022-09-17T12:09:42;96614.72;;;16.88;55.94
57644;BME280;43474;46.510;6.686;2022-09-17T12:12:16;96615.53;;;16.83;60.46
57644;BME280;43474;46.510;6.686;2022-09-17T12:14:47;96599.22;;;16.49;57.57
57644;BME280;43474;46.510;6.686;2022-09-17T12:17:20;96590.13;;;17.40;58.10
57644;BME280;43474;46.510;6.686;2022-09-17T12:19:56;96585.84;;;17.44;55.00
57644;BME280;43474;46.510;6.686;2022-09-17T12:22:29;96595.31;;;17.26;61.55
57644;BME280;43474;46.510;6.686;2022-09-17T12:24:56;96580.53;;;17.34;55.30
57644;BME280;43474;46.510;6.686;2022-09-17T12:27:50;96586.22;;;17.72;52.71
57644;BME280;43474;46.510;6.686;2022-09-17T12:30:20;96589.63;;;17.88;52.79
57644;BME280;43474;46.510;6.686;2022-09-17T12:35:58;96585.97;;;18.13;51.95
57644;BME280;43474;46.510;6.686;2022-09-17T12:47:08;96576.00;;;18.18;55.39
57644;BME280;43474;46.510;6.686;2022-09-17T12:50:16;96572.63;;;18.37;57.02
57644;BME280;43474;46.510;6.686;2022-09-17T12:55:54;96557.91;;;18.87;57.01
57644;BME280;43474;46.510;6.686;2022-09-17T13:01:27;96570.78;;;17.98;53.94
57644;BME280;43474;46.510;6.686;2022-09-17T13:04:04;96574.22;;;17.59;54.40
57644;BME280;43474;46.510;6.686;2022-09-17T13:06:51;96580.63;;;17.09;54.54
57644;BME280;43474;46.510;6.686;2022-09-17T13:12:03;96573.78;;;16.67;53.40
57644;BME280;43474;46.510;6.686;2022-09-17T13:14:57;96569.53;;;16.45;55.70
57644;BME280;43474;46.510;6.686;2022-09-17T13:18:12;96584.53;;;16.36;56.53
57644;BME280;43474;46.510;6.686;2022-09-17T13:20:37;96592.56;;;16.41;60.99
57644;BME280;43474;46.510;6.686;2022-09-17T13:23:04;96585.06;;;16.38;61.79
57644;BME280;43474;46.510;6.686;2022-09-17T13:25:29;96569.31;;;16.11;60.84
57644;BME280;43474;46.510;6.686;2022-09-17T13:28:09;96593.38;;;16.11;59.11
57644;BME280;43474;46.510;6.686;2022-09-17T13:30:55;96590.69;;;16.26;59.63
57644;BME280;43474;46.510;6.686;2022-09-17T13:33:47;96600.03;;;16.19;64.11
57644;BME280;43474;46.510;6.686;2022-09-17T13:36:49;96571.16;;;16.00;57.55
57644;BME280;43474;46.510;6.686;2022-09-17T13:42:21;96593.09;;;15.92;64.68
57644;BME280;43474;46.510;6.686;2022-09-17T13:45:02;96573.81;;;15.75;59.36
57644;BME280;43474;46.510;6.686;2022-09-17T13:50:42;96594.69;;;15.78;61.61
57644;BME280;43474;46.510;6.686;2022-09-17T13:55:48;96585.59;;;15.79;57.60
57644;BME280;43474;46.510;6.686;2022-09-17T14:00:56;96590.94;;;16.45;62.89
57644;BME280;43474;46.510;6.686;2022-09-17T14:08:48;96588.72;;;16.98;58.10
57644;BME280;43474;46.510;6.686;2022-09-17T14:16:46;96598.66;;;15.70;61.25
57644;BME280;43474;46.510;6.686;2022-09-17T14:21:41;96601.13;;;15.14;59.60
57644;BME280;43474;46.510;6.686;2022-09-17T14:24:21;96599.50;;;15.03;62.60
57644;BME280;43474;46.510;6.686;2022-09-17T14:29:52;63507.81;;;-144.60;100.00
57644;BME280;43474;46.510;6.686;2022-09-17T14:32:27;63507.81;;;-144.60;100.00
57644;BME280;43474;46.510;6.686;2022-09-17T14:35:01;63507.81;;;-144.60;100.00
57644;BME280;43474;46.510;6.686;2022-09-17T14:37:28;63507.81;;;-144.60;100.00
57644;BME280;43474;46.510;6.686;2022-09-17T14:39:54;63507.81;;;-144.60;100.00
57644;BME280;43474;46.510;6.686;2022-09-17T14:42:23;63507.81;;;-144.60;100.00
57644;BME280;43474;46.510;6.686;2022-09-17T14:44:58;63507.81;;;-144.60;100.00
57644;BME280;43474;46.510;6.686;2022-09-17T14:47:25;63507.81;;;-144.60;100.00
57644;BME280;43474;46.510;6.686;2022-09-17T14:49:51;63507.81;;;-144.60;100.00
57644;BME280;43474;46.510;6.686;2022-09-17T14:52:27;63507.81;;;-144.60;100.00
57644;BME280;43474;46.510;6.686;2022-09-17T14:57:42;63507.81;;;-144.60;100.00
57644;BME280;43474;46.510;6.686;2022-09-17T15:00:17;63507.81;;;-144.60;100.00
57644;BME280;43474;46.510;6.686;2022-09-17T15:02:43;96596.25;;;13.84;66.44
57644;BME280;43474;46.510;6.686;2022-09-17T15:07:50;96594.03;;;13.49;68.93
57644;BME280;43474;46.510;6.686;2022-09-17T15:10:19;96595.53;;;13.40;71.48
57644;BME280;43474;46.510;6.686;2022-09-17T15:12:45;96592.44;;;13.26;69.49
57644;BME280;43474;46.510;6.686;2022-09-17T15:15:20;96585.44;;;13.20;68.84
57644;BME280;43474;46.510;6.686;2022-09-17T15:17:48;96588.91;;;13.20;68.73
57644;BME280;43474;46.510;6.686;2022-09-17T15:20:22;96593.97;;;13.71;77.94
57644;BME280;43474;46.510;6.686;2022-09-17T15:23:08;96572.03;;;13.59;72.51
57644;BME280;43474;46.510;6.686;2022-09-17T15:25:38;96593.88;;;14.20;67.16
57644;BME280;43474;46.510;6.686;2022-09-17T15:28:24;96592.91;;;14.68;67.19
57644;BME280;43474;46.510;6.686;2022-09-17T15:30:52;96575.19;;;14.99;67.34
57644;BME280;43474;46.510;6.686;2022-09-17T15:33:17;96581.97;;;15.28;65.58
57644;BME280;43474;46.510;6.686;2022-09-17T15:36:07;96592.31;;;15.09;63.76
57644;BME280;43474;46.510;6.686;2022-09-17T15:38:35;96586.84;;;14.83;60.92
57644;BME280;43474;46.510;6.686;2022-09-17T15:41:25;96593.00;;;14.46;60.88
57644;BME280;43474;46.510;6.686;2022-09-17T15:43:52;96592.66;;;14.01;64.50
57644;BME280;43474;46.510;6.686;2022-09-17T15:46:27;96596.47;;;13.78;69.27
57644;BME280;43474;46.510;6.686;2022-09-17T15:48:54;96587.34;;;13.47;67.84
57644;BME280;43474;46.510;6.686;2022-09-17T15:53:53;96594.97;;;13.92;63.79
57644;BME280;43474;46.510;6.686;2022-09-17T15:56:27;96600.00;;;14.20;67.09